sensor_id;sensor_type;location;lat;lon;timestamp;pressure;altitude;pressure_sealevel;temperature
64790;BMP280;51223;51.816;5.862;2022-08-21T00:01:54;101695.56;;;21.60
64790;BMP280;51223;51.816;5.862;2022-08-21T00:04:20;101700.06;;;21.37
64790;BMP280;51223;51.816;5.862;2022-08-21T00:06:46;101696.25;;;21.84
64790;BMP280;51223;51.816;5.862;2022-08-21T00:09:12;101700.06;;;21.52
64790;BMP280;51223;51.816;5.862;2022-08-21T00:11:38;101698.22;;;21.64
64790;BMP280;51223;51.816;5.862;2022-08-21T00:14:07;101695.31;;;21.34
64790;BMP280;51223;51.816;5.862;2022-08-21T00:16:34;101696.09;;;21.35
64790;BMP280;51223;51.816;5.862;2022-08-21T00:19:00;101689.13;;;21.36
64790;BMP280;51223;51.816;5.862;2022-08-21T00:21:26;101681.84;;;21.35
64790;BMP280;51223;51.816;5.862;2022-08-21T00:23:52;101685.88;;;21.43
64790;BMP280;51223;51.816;5.862;2022-08-21T00:26:17;101677.22;;;21.37
64790;BMP280;51223;51.816;5.862;2022-08-21T00:28:43;101681.50;;;21.57
64790;BMP280;51223;51.816;5.862;2022-08-21T00:31:12;101683.13;;;21.48
64790;BMP280;51223;51.816;5.862;2022-08-21T00:33:38;101685.78;;;20.99
64790;BMP280;51223;51.816;5.862;2022-08-21T00:36:04;101687.22;;;21.18
64790;BMP280;51223;51.816;5.862;2022-08-21T00:38:30;101686.69;;;21.05
64790;BMP280;51223;51.816;5.862;2022-08-21T00:40:58;101681.59;;;21.09
64790;BMP280;51223;51.816;5.862;2022-08-21T00:43:28;101676.53;;;20.56
64790;BMP280;51223;51.816;5.862;2022-08-21T00:45:55;101681.13;;;20.87
64790;BMP280;51223;51.816;5.862;2022-08-21T00:48:22;101685.81;;;20.66
64790;BMP280;51223;51.816;5.862;2022-08-21T00:50:55;101674.78;;;21.06
64790;BMP280;51223;51.816;5.862;2022-08-21T00:53:22;101680.72;;;21.18
64790;BMP280;51223;51.816;5.862;2022-08-21T00:55:49;101680.88;;;20.99
64790;BMP280;51223;51.816;5.862;2022-08-21T00:58:16;101683.28;;;20.68
64790;BMP280;51223;51.816;5.862;2022-08-21T01:00:43;101686.31;;;20.64
64790;BMP280;51223;51.816;5.862;2022-08-21T01:03:14;101680.06;;;20.09
64790;BMP280;51223;51.816;5.862;2022-08-21T01:05:41;101684.63;;;20.82
64790;BMP280;51223;51.816;5.862;2022-08-21T01:08:09;101676.91;;;20.73
64790;BMP280;51223;51.816;5.862;2022-08-21T01:10:36;101684.44;;;20.61
64790;BMP280;51223;51.816;5.862;2022-08-21T01:13:05;101678.97;;;20.73
64790;BMP280;51223;51.816;5.862;2022-08-21T01:15:35;101677.66;;;20.83
64790;BMP280;51223;51.816;5.862;2022-08-21T01:18:03;101673.34;;;20.63
64790;BMP280;51223;51.816;5.862;2022-08-21T01:20:29;101683.41;;;20.74
64790;BMP280;51223;51.816;5.862;2022-08-21T01:22:55;101680.13;;;20.33
64790;BMP280;51223;51.816;5.862;2022-08-21T01:25:21;101682.38;;;20.38
64790;BMP280;51223;51.816;5.862;2022-08-21T01:27:47;101684.19;;;20.50
64790;BMP280;51223;51.816;5.862;2022-08-21T01:30:21;101684.06;;;20.69
64790;BMP280;51223;51.816;5.862;2022-08-21T01:32:47;101686.13;;;20.02
64790;BMP280;51223;51.816;5.862;2022-08-21T01:35:14;101688.69;;;20.42
64790;BMP280;51223;51.816;5.862;2022-08-21T01:37:42;101686.63;;;20.67
64790;BMP280;51223;51.816;5.862;2022-08-21T01:40:09;101680.56;;;20.50
64790;BMP280;51223;51.816;5.862;2022-08-21T01:42:36;101679.09;;;20.22
64790;BMP280;51223;51.816;5.862;2022-08-21T01:45:03;101679.88;;;20.22
64790;BMP280;51223;51.816;5.862;2022-08-21T01:47:29;101682.78;;;20.13
64790;BMP280;51223;51.816;5.862;2022-08-21T01:49:55;101680.69;;;20.55
64790;BMP280;51223;51.816;5.862;2022-08-21T01:52:21;101692.06;;;20.23
64790;BMP280;51223;51.816;5.862;2022-08-21T01:54:47;101679.53;;;20.38
64790;BMP280;51223;51.816;5.862;2022-08-21T01:57:13;101688.22;;;19.74
64790;BMP280;51223;51.816;5.862;2022-08-21T01:59:39;101683.81;;;20.25
64790;BMP280;51223;51.816;5.862;2022-08-21T02:02:05;101676.38;;;20.27
64790;BMP280;51223;51.816;5.862;2022-08-21T02:04:32;101676.56;;;19.72
64790;BMP280;51223;51.816;5.862;2022-08-21T02:06:59;101678.47;;;20.17
64790;BMP280;51223;51.816;5.862;2022-08-21T02:09:25;101683.00;;;20.33
64790;BMP280;51223;51.816;5.862;2022-08-21T02:11:51;101668.94;;;20.30
64790;BMP280;51223;51.816;5.862;2022-08-21T02:14:17;101667.78;;;20.36
64790;BMP280;51223;51.816;5.862;2022-08-21T02:16:44;101673.03;;;20.38
64790;BMP280;51223;51.816;5.862;2022-08-21T02:19:12;101672.03;;;20.08
64790;BMP280;51223;51.816;5.862;2022-08-21T02:21:38;101667.25;;;20.14
64790;BMP280;51223;51.816;5.862;2022-08-21T02:24:05;101652.34;;;20.19
64790;BMP280;51223;51.816;5.862;2022-08-21T02:26:31;101660.50;;;20.35
64790;BMP280;51223;51.816;5.862;2022-08-21T02:28:58;101660.91;;;20.19
64790;BMP280;51223;51.816;5.862;2022-08-21T02:31:24;101660.34;;;19.88
64790;BMP280;51223;51.816;5.862;2022-08-21T02:33:50;101659.59;;;19.87
64790;BMP280;51223;51.816;5.862;2022-08-21T02:36:16;101657.66;;;19.93
64790;BMP280;51223;51.816;5.862;2022-08-21T02:38:45;101655.97;;;19.77
64790;BMP280;51223;51.816;5.862;2022-08-21T02:41:17;101648.13;;;20.05
64790;BMP280;51223;51.816;5.862;2022-08-21T02:43:44;101648.44;;;19.11
64790;BMP280;51223;51.816;5.862;2022-08-21T02:46:13;101648.91;;;19.37
64790;BMP280;51223;51.816;5.862;2022-08-21T02:48:39;101653.41;;;19.98
64790;BMP280;51223;51.816;5.862;2022-08-21T02:51:09;101652.09;;;20.08
64790;BMP280;51223;51.816;5.862;2022-08-21T02:53:36;101647.81;;;20.12
64790;BMP280;51223;51.816;5.862;2022-08-21T02:56:05;101648.09;;;19.54
64790;BMP280;51223;51.816;5.862;2022-08-21T02:58:35;101644.78;;;19.74
64790;BMP280;51223;51.816;5.862;2022-08-21T03:01:01;101644.25;;;19.85
64790;BMP280;51223;51.816;5.862;2022-08-21T03:03:27;101648.84;;;19.82
64790;BMP280;51223;51.816;5.862;2022-08-21T03:05:54;101640.03;;;19.62
64790;BMP280;51223;51.816;5.862;2022-08-21T03:08:20;101641.81;;;19.32
64790;BMP280;51223;51.816;5.862;2022-08-21T03:10:48;101649.69;;;19.46
64790;BMP280;51223;51.816;5.862;2022-08-21T03:13:15;101641.78;;;19.14
64790;BMP280;51223;51.816;5.862;2022-08-21T03:15:42;101639.25;;;19.61
64790;BMP280;51223;51.816;5.862;2022-08-21T03:18:09;101641.47;;;19.48
64790;BMP280;51223;51.816;5.862;2022-08-21T03:20:36;101632.63;;;19.46
64790;BMP280;51223;51.816;5.862;2022-08-21T03:23:03;101637.66;;;19.79
64790;BMP280;51223;51.816;5.862;2022-08-21T03:25:30;101639.91;;;19.65
64790;BMP280;51223;51.816;5.862;2022-08-21T03:28:00;101634.06;;;19.42
64790;BMP280;51223;51.816;5.862;2022-08-21T03:30:26;101632.31;;;19.44
64790;BMP280;51223;51.816;5.862;2022-08-21T03:32:52;101632.81;;;19.43
64790;BMP280;51223;51.816;5.862;2022-08-21T03:35:19;101635.47;;;19.64
64790;BMP280;51223;51.816;5.862;2022-08-21T03:37:45;101639.28;;;19.43
64790;BMP280;51223;51.816;5.862;2022-08-21T03:40:13;101628.72;;;18.98
64790;BMP280;51223;51.816;5.862;2022-08-21T03:42:39;101628.22;;;19.36
64790;BMP280;51223;51.816;5.862;2022-08-21T03:45:05;101633.28;;;19.23
64790;BMP280;51223;51.816;5.862;2022-08-21T03:47:31;101635.66;;;19.43
64790;BMP280;51223;51.816;5.862;2022-08-21T03:49:57;101634.09;;;19.23
64790;BMP280;51223;51.816;5.862;2022-08-21T03:52:25;101625.72;;;19.20
64790;BMP280;51223;51.816;5.862;2022-08-21T03:54:51;101632.00;;;19.06
64790;BMP280;51223;51.816;5.862;2022-08-21T03:57:17;101634.22;;;19.02
64790;BMP280;51223;51.816;5.862;2022-08-21T03:59:43;101632.19;;;19.29
64790;BMP280;51223;51.816;5.862;2022-08-21T04:02:10;101624.56;;;19.36
64790;BMP280;51223;51.816;5.862;2022-08-21T04:04:36;101617.97;;;19.20
64790;BMP280;51223;51.816;5.862;2022-08-21T04:07:03;101624.56;;;18.99
64790;BMP280;51223;51.816;5.862;2022-08-21T04:09:31;101619.69;;;19.18
64790;BMP280;51223;51.816;5.862;2022-08-21T04:11:58;101622.84;;;18.83
64790;BMP280;51223;51.816;5.862;2022-08-21T04:14:24;101614.63;;;18.85
64790;BMP280;51223;51.816;5.862;2022-08-21T04:16:50;101616.78;;;18.72
64790;BMP280;51223;51.816;5.862;2022-08-21T04:19:16;101624.31;;;16.99
64790;BMP280;51223;51.816;5.862;2022-08-21T04:21:42;101619.06;;;17.67
64790;BMP280;51223;51.816;5.862;2022-08-21T04:24:08;101626.91;;;18.64
64790;BMP280;51223;51.816;5.862;2022-08-21T04:26:36;101620.63;;;18.87
64790;BMP280;51223;51.816;5.862;2022-08-21T04:29:03;101625.69;;;18.93
64790;BMP280;51223;51.816;5.862;2022-08-21T04:31:33;101616.72;;;19.21
64790;BMP280;51223;51.816;5.862;2022-08-21T04:33:59;101620.31;;;19.04
64790;BMP280;51223;51.816;5.862;2022-08-21T04:36:25;101621.22;;;18.73
64790;BMP280;51223;51.816;5.862;2022-08-21T04:38:51;101616.69;;;19.30
64790;BMP280;51223;51.816;5.862;2022-08-21T04:41:18;101622.69;;;19.42
64790;BMP280;51223;51.816;5.862;2022-08-21T04:43:44;101620.00;;;19.38
64790;BMP280;51223;51.816;5.862;2022-08-21T04:46:09;101617.47;;;19.40
64790;BMP280;51223;51.816;5.862;2022-08-21T04:48:36;101617.47;;;18.95
64790;BMP280;51223;51.816;5.862;2022-08-21T04:51:09;101623.41;;;18.51
64790;BMP280;51223;51.816;5.862;2022-08-21T04:53:40;101625.84;;;18.98
64790;BMP280;51223;51.816;5.862;2022-08-21T04:56:13;101626.19;;;19.18
64790;BMP280;51223;51.816;5.862;2022-08-21T04:58:41;101632.66;;;19.19
64790;BMP280;51223;51.816;5.862;2022-08-21T05:01:14;101637.69;;;19.15
64790;BMP280;51223;51.816;5.862;2022-08-21T05:03:41;101638.81;;;19.17
64790;BMP280;51223;51.816;5.862;2022-08-21T05:06:10;101642.44;;;19.36
64790;BMP280;51223;51.816;5.862;2022-08-21T05:08:38;101635.50;;;19.28
64790;BMP280;51223;51.816;5.862;2022-08-21T05:11:04;101637.41;;;19.22
64790;BMP280;51223;51.816;5.862;2022-08-21T05:13:30;101633.44;;;19.28
64790;BMP280;51223;51.816;5.862;2022-08-21T05:15:56;101630.44;;;19.32
64790;BMP280;51223;51.816;5.862;2022-08-21T05:18:22;101641.97;;;19.38
64790;BMP280;51223;51.816;5.862;2022-08-21T05:20:48;101642.75;;;19.47
64790;BMP280;51223;51.816;5.862;2022-08-21T05:23:14;101645.13;;;19.40
64790;BMP280;51223;51.816;5.862;2022-08-21T05:25:40;101644.31;;;19.48
64790;BMP280;51223;51.816;5.862;2022-08-21T05:28:07;101644.78;;;19.56
64790;BMP280;51223;51.816;5.862;2022-08-21T05:30:33;101662.66;;;19.65
64790;BMP280;51223;51.816;5.862;2022-08-21T05:33:00;101662.00;;;19.70
64790;BMP280;51223;51.816;5.862;2022-08-21T05:35:28;101674.59;;;19.88
64790;BMP280;51223;51.816;5.862;2022-08-21T05:37:55;101670.91;;;20.05
64790;BMP280;51223;51.816;5.862;2022-08-21T05:40:22;101672.72;;;19.85
64790;BMP280;51223;51.816;5.862;2022-08-21T05:42:48;101669.84;;;20.03
64790;BMP280;51223;51.816;5.862;2022-08-21T05:45:13;101673.22;;;20.25
64790;BMP280;51223;51.816;5.862;2022-08-21T05:47:39;101672.53;;;20.30
64790;BMP280;51223;51.816;5.862;2022-08-21T05:50:05;101675.50;;;20.12
64790;BMP280;51223;51.816;5.862;2022-08-21T05:52:31;101677.59;;;20.35
64790;BMP280;51223;51.816;5.862;2022-08-21T05:54:57;101677.38;;;20.15
64790;BMP280;51223;51.816;5.862;2022-08-21T05:57:23;101681.41;;;20.41
64790;BMP280;51223;51.816;5.862;2022-08-21T05:59:50;101691.47;;;20.75
64790;BMP280;51223;51.816;5.862;2022-08-21T06:02:18;101685.03;;;20.00
64790;BMP280;51223;51.816;5.862;2022-08-21T06:04:44;101682.78;;;20.46
64790;BMP280;51223;51.816;5.862;2022-08-21T06:07:10;101672.50;;;20.06
64790;BMP280;51223;51.816;5.862;2022-08-21T06:09:36;101661.44;;;20.65
64790;BMP280;51223;51.816;5.862;2022-08-21T06:12:05;101670.22;;;21.38
64790;BMP280;51223;51.816;5.862;2022-08-21T06:14:31;101672.94;;;21.57
64790;BMP280;51223;51.816;5.862;2022-08-21T06:17:08;101666.19;;;20.92
64790;BMP280;51223;51.816;5.862;2022-08-21T06:19:34;101672.78;;;21.51
64790;BMP280;51223;51.816;5.862;2022-08-21T06:22:00;101675.09;;;20.37
64790;BMP280;51223;51.816;5.862;2022-08-21T06:24:26;101669.84;;;21.75
64790;BMP280;51223;51.816;5.862;2022-08-21T06:26:52;101670.28;;;20.76
64790;BMP280;51223;51.816;5.862;2022-08-21T06:29:18;101672.44;;;19.55
64790;BMP280;51223;51.816;5.862;2022-08-21T06:31:46;101671.59;;;21.28
64790;BMP280;51223;51.816;5.862;2022-08-21T06:34:13;101670.13;;;21.47
64790;BMP280;51223;51.816;5.862;2022-08-21T06:36:39;101670.63;;;21.46
64790;BMP280;51223;51.816;5.862;2022-08-21T06:39:04;101672.94;;;21.57
64790;BMP280;51223;51.816;5.862;2022-08-21T06:41:32;101667.88;;;21.37
64790;BMP280;51223;51.816;5.862;2022-08-21T06:43:58;101673.81;;;21.77
64790;BMP280;51223;51.816;5.862;2022-08-21T06:46:25;101663.50;;;20.41
64790;BMP280;51223;51.816;5.862;2022-08-21T06:48:51;101670.94;;;21.33
64790;BMP280;51223;51.816;5.862;2022-08-21T06:51:17;101669.53;;;22.02
64790;BMP280;51223;51.816;5.862;2022-08-21T06:53:44;101673.41;;;20.22
64790;BMP280;51223;51.816;5.862;2022-08-21T06:56:10;101672.72;;;21.60
64790;BMP280;51223;51.816;5.862;2022-08-21T06:58:36;101673.44;;;20.45
64790;BMP280;51223;51.816;5.862;2022-08-21T07:01:03;101680.56;;;21.94
64790;BMP280;51223;51.816;5.862;2022-08-21T07:03:35;101674.38;;;21.67
64790;BMP280;51223;51.816;5.862;2022-08-21T07:06:04;101679.22;;;22.39
64790;BMP280;51223;51.816;5.862;2022-08-21T07:08:30;101677.63;;;22.04
64790;BMP280;51223;51.816;5.862;2022-08-21T07:10:58;101676.59;;;22.56
64790;BMP280;51223;51.816;5.862;2022-08-21T07:13:24;101666.25;;;22.79
64790;BMP280;51223;51.816;5.862;2022-08-21T07:15:50;101668.91;;;22.27
64790;BMP280;51223;51.816;5.862;2022-08-21T07:18:16;101672.22;;;23.01
64790;BMP280;51223;51.816;5.862;2022-08-21T07:20:43;101670.59;;;22.95
64790;BMP280;51223;51.816;5.862;2022-08-21T07:23:12;101667.44;;;22.72
64790;BMP280;51223;51.816;5.862;2022-08-21T07:25:41;101672.09;;;22.50
64790;BMP280;51223;51.816;5.862;2022-08-21T07:28:07;101671.88;;;22.93
64790;BMP280;51223;51.816;5.862;2022-08-21T07:30:33;101658.84;;;22.72
64790;BMP280;51223;51.816;5.862;2022-08-21T07:32:59;101675.97;;;23.13
64790;BMP280;51223;51.816;5.862;2022-08-21T07:35:24;101663.63;;;22.40
64790;BMP280;51223;51.816;5.862;2022-08-21T07:37:50;101663.25;;;22.88
64790;BMP280;51223;51.816;5.862;2022-08-21T07:40:16;101665.13;;;23.17
64790;BMP280;51223;51.816;5.862;2022-08-21T07:42:45;101664.63;;;23.18
64790;BMP280;51223;51.816;5.862;2022-08-21T07:45:13;101668.44;;;23.35
64790;BMP280;51223;51.816;5.862;2022-08-21T07:47:39;101664.78;;;22.89
64790;BMP280;51223;51.816;5.862;2022-08-21T07:50:06;101668.78;;;22.57
64790;BMP280;51223;51.816;5.862;2022-08-21T07:52:33;101661.94;;;23.61
64790;BMP280;51223;51.816;5.862;2022-08-21T07:55:02;101660.03;;;23.89
64790;BMP280;51223;51.816;5.862;2022-08-21T07:57:28;101651.44;;;23.89
64790;BMP280;51223;51.816;5.862;2022-08-21T07:59:54;101653.75;;;23.02
64790;BMP280;51223;51.816;5.862;2022-08-21T08:02:29;101655.91;;;22.67
64790;BMP280;51223;51.816;5.862;2022-08-21T08:05:05;101653.44;;;22.54
64790;BMP280;51223;51.816;5.862;2022-08-21T08:07:31;101654.47;;;22.97
64790;BMP280;51223;51.816;5.862;2022-08-21T08:09:57;101649.03;;;23.19
64790;BMP280;51223;51.816;5.862;2022-08-21T08:12:24;101667.34;;;23.07
64790;BMP280;51223;51.816;5.862;2022-08-21T08:14:58;101654.63;;;23.60
64790;BMP280;51223;51.816;5.862;2022-08-21T08:17:24;101661.34;;;22.44
64790;BMP280;51223;51.816;5.862;2022-08-21T08:19:50;101659.38;;;23.68
64790;BMP280;51223;51.816;5.862;2022-08-21T08:22:19;101657.34;;;24.11
64790;BMP280;51223;51.816;5.862;2022-08-21T08:24:46;101658.13;;;23.75
64790;BMP280;51223;51.816;5.862;2022-08-21T08:27:12;101656.03;;;24.07
64790;BMP280;51223;51.816;5.862;2022-08-21T08:29:38;101653.03;;;24.27
64790;BMP280;51223;51.816;5.862;2022-08-21T08:32:05;101652.34;;;24.43
64790;BMP280;51223;51.816;5.862;2022-08-21T08:34:34;101652.94;;;24.64
64790;BMP280;51223;51.816;5.862;2022-08-21T08:36:59;101646.19;;;24.72
64790;BMP280;51223;51.816;5.862;2022-08-21T08:39:26;101648.59;;;24.79
64790;BMP280;51223;51.816;5.862;2022-08-21T08:42:05;101640.22;;;24.81
64790;BMP280;51223;51.816;5.862;2022-08-21T08:44:31;101634.03;;;25.00
64790;BMP280;51223;51.816;5.862;2022-08-21T08:46:57;101634.06;;;25.55
64790;BMP280;51223;51.816;5.862;2022-08-21T08:49:36;101638.25;;;25.60
64790;BMP280;51223;51.816;5.862;2022-08-21T08:52:19;101632.22;;;25.74
64790;BMP280;51223;51.816;5.862;2022-08-21T08:54:51;101630.94;;;25.64
64790;BMP280;51223;51.816;5.862;2022-08-21T08:57:24;101630.38;;;25.88
64790;BMP280;51223;51.816;5.862;2022-08-21T08:59:53;101624.00;;;26.23
64790;BMP280;51223;51.816;5.862;2022-08-21T09:02:20;101626.56;;;24.54
64790;BMP280;51223;51.816;5.862;2022-08-21T09:04:50;101625.47;;;25.27
64790;BMP280;51223;51.816;5.862;2022-08-21T09:07:42;101624.09;;;26.01
64790;BMP280;51223;51.816;5.862;2022-08-21T09:10:36;101611.31;;;25.52
64790;BMP280;51223;51.816;5.862;2022-08-21T09:13:32;101625.41;;;25.94
64790;BMP280;51223;51.816;5.862;2022-08-21T09:16:07;101620.03;;;26.31
64790;BMP280;51223;51.816;5.862;2022-08-21T09:18:41;101623.09;;;25.70
64790;BMP280;51223;51.816;5.862;2022-08-21T09:21:22;101625.28;;;26.27
64790;BMP280;51223;51.816;5.862;2022-08-21T09:24:00;101626.41;;;26.08
64790;BMP280;51223;51.816;5.862;2022-08-21T09:26:31;101622.75;;;26.07
64790;BMP280;51223;51.816;5.862;2022-08-21T09:28:59;101616.13;;;26.29
64790;BMP280;51223;51.816;5.862;2022-08-21T09:31:32;101613.25;;;26.35
64790;BMP280;51223;51.816;5.862;2022-08-21T09:34:07;101615.56;;;26.42
64790;BMP280;51223;51.816;5.862;2022-08-21T09:36:51;101606.38;;;25.52
64790;BMP280;51223;51.816;5.862;2022-08-21T09:39:30;101605.84;;;25.54
64790;BMP280;51223;51.816;5.862;2022-08-21T09:42:02;101620.50;;;25.61
64790;BMP280;51223;51.816;5.862;2022-08-21T09:44:30;101612.59;;;25.95
64790;BMP280;51223;51.816;5.862;2022-08-21T09:46:57;101622.81;;;25.74
64790;BMP280;51223;51.816;5.862;2022-08-21T09:49:31;101622.47;;;26.74
64790;BMP280;51223;51.816;5.862;2022-08-21T09:51:57;101618.78;;;26.79
64790;BMP280;51223;51.816;5.862;2022-08-21T09:54:31;101626.09;;;27.15
64790;BMP280;51223;51.816;5.862;2022-08-21T09:57:01;101622.28;;;25.81
64790;BMP280;51223;51.816;5.862;2022-08-21T09:59:49;101623.75;;;26.73
64790;BMP280;51223;51.816;5.862;2022-08-21T10:02:32;101620.38;;;27.10
64790;BMP280;51223;51.816;5.862;2022-08-21T10:05:18;101616.19;;;27.05
64790;BMP280;51223;51.816;5.862;2022-08-21T10:07:44;101620.44;;;27.34
64790;BMP280;51223;51.816;5.862;2022-08-21T10:10:16;101630.44;;;27.27
64790;BMP280;51223;51.816;5.862;2022-08-21T10:12:50;101621.22;;;25.95
64790;BMP280;51223;51.816;5.862;2022-08-21T10:15:44;101614.72;;;27.28
64790;BMP280;51223;51.816;5.862;2022-08-21T10:18:19;101616.94;;;27.17
64790;BMP280;51223;51.816;5.862;2022-08-21T10:21:24;101612.06;;;27.30
64790;BMP280;51223;51.816;5.862;2022-08-21T10:26:47;101626.56;;;27.55
64790;BMP280;51223;51.816;5.862;2022-08-21T10:29:33;101610.81;;;25.53
64790;BMP280;51223;51.816;5.862;2022-08-21T10:32:23;101613.91;;;26.57
64790;BMP280;51223;51.816;5.862;2022-08-21T10:35:04;101614.72;;;26.99
64790;BMP280;51223;51.816;5.862;2022-08-21T10:38:01;101612.72;;;26.30
64790;BMP280;51223;51.816;5.862;2022-08-21T10:41:01;101608.44;;;26.95
64790;BMP280;51223;51.816;5.862;2022-08-21T10:43:41;101610.22;;;25.99
64790;BMP280;51223;51.816;5.862;2022-08-21T10:46:19;101610.03;;;26.96
64790;BMP280;51223;51.816;5.862;2022-08-21T10:48:57;101612.25;;;26.15
64790;BMP280;51223;51.816;5.862;2022-08-21T10:51:40;101614.31;;;26.26
64790;BMP280;51223;51.816;5.862;2022-08-21T10:54:32;101606.72;;;26.34
64790;BMP280;51223;51.816;5.862;2022-08-21T10:57:06;101615.31;;;26.86
64790;BMP280;51223;51.816;5.862;2022-08-21T10:59:47;101603.13;;;27.40
64790;BMP280;51223;51.816;5.862;2022-08-21T11:02:29;101606.03;;;27.34
64790;BMP280;51223;51.816;5.862;2022-08-21T11:05:04;101610.38;;;27.16
64790;BMP280;51223;51.816;5.862;2022-08-21T11:07:35;101613.22;;;27.22
64790;BMP280;51223;51.816;5.862;2022-08-21T11:10:09;101613.88;;;27.33
64790;BMP280;51223;51.816;5.862;2022-08-21T11:12:43;101613.72;;;27.26
64790;BMP280;51223;51.816;5.862;2022-08-21T11:18:20;101612.84;;;27.85
64790;BMP280;51223;51.816;5.862;2022-08-21T11:20:54;101608.47;;;29.09
64790;BMP280;51223;51.816;5.862;2022-08-21T11:23:31;101602.81;;;27.13
64790;BMP280;51223;51.816;5.862;2022-08-21T11:26:08;101608.22;;;28.94
64790;BMP280;51223;51.816;5.862;2022-08-21T11:28:41;101600.59;;;28.78
64790;BMP280;51223;51.816;5.862;2022-08-21T11:34:01;101602.72;;;27.54
64790;BMP280;51223;51.816;5.862;2022-08-21T11:36:42;101585.78;;;28.12
64790;BMP280;51223;51.816;5.862;2022-08-21T11:39:25;101598.66;;;28.49
64790;BMP280;51223;51.816;5.862;2022-08-21T11:42:09;101585.72;;;28.55
64790;BMP280;51223;51.816;5.862;2022-08-21T11:45:42;101591.75;;;29.21
64790;BMP280;51223;51.816;5.862;2022-08-21T11:50:38;101575.97;;;28.77
64790;BMP280;51223;51.816;5.862;2022-08-21T11:53:21;101573.63;;;28.01
64790;BMP280;51223;51.816;5.862;2022-08-21T11:55:55;101576.06;;;29.16
64790;BMP280;51223;51.816;5.862;2022-08-21T11:58:25;101579.19;;;28.86
64790;BMP280;51223;51.816;5.862;2022-08-21T12:00:56;101575.59;;;27.14
64790;BMP280;51223;51.816;5.862;2022-08-21T12:03:32;101573.78;;;28.46
64790;BMP280;51223;51.816;5.862;2022-08-21T12:06:10;101573.63;;;28.19
64790;BMP280;51223;51.816;5.862;2022-08-21T12:08:38;101578.38;;;27.98
64790;BMP280;51223;51.816;5.862;2022-08-21T12:14:11;101579.44;;;28.70
64790;BMP280;51223;51.816;5.862;2022-08-21T12:16:40;101589.84;;;27.79
64790;BMP280;51223;51.816;5.862;2022-08-21T12:19:08;101599.25;;;27.31
64790;BMP280;51223;51.816;5.862;2022-08-21T12:21:49;101588.66;;;28.12
64790;BMP280;51223;51.816;5.862;2022-08-21T12:26:53;101589.38;;;27.75
64790;BMP280;51223;51.816;5.862;2022-08-21T12:29:32;101593.09;;;27.70
64790;BMP280;51223;51.816;5.862;2022-08-21T12:34:38;101596.16;;;28.58
64790;BMP280;51223;51.816;5.862;2022-08-21T12:37:14;101594.53;;;29.39
64790;BMP280;51223;51.816;5.862;2022-08-21T12:39:46;101584.78;;;29.82
64790;BMP280;51223;51.816;5.862;2022-08-21T12:44:53;101593.38;;;28.53
64790;BMP280;51223;51.816;5.862;2022-08-21T12:49:58;101590.72;;;28.73
64790;BMP280;51223;51.816;5.862;2022-08-21T12:52:48;101592.28;;;29.19
64790;BMP280;51223;51.816;5.862;2022-08-21T12:55:26;101584.78;;;29.82
64790;BMP280;51223;51.816;5.862;2022-08-21T12:57:52;101593.44;;;29.95
64790;BMP280;51223;51.816;5.862;2022-08-21T13:00:22;101585.19;;;28.38
64790;BMP280;51223;51.816;5.862;2022-08-21T13:02:51;101573.41;;;29.84
64790;BMP280;51223;51.816;5.862;2022-08-21T13:05:41;101584.28;;;29.25
64790;BMP280;51223;51.816;5.862;2022-08-21T13:08:10;101580.16;;;28.76
64790;BMP280;51223;51.816;5.862;2022-08-21T13:10:39;101587.78;;;27.99
64790;BMP280;51223;51.816;5.862;2022-08-21T13:13:10;101596.16;;;28.77
64790;BMP280;51223;51.816;5.862;2022-08-21T13:15:40;101582.59;;;27.97
64790;BMP280;51223;51.816;5.862;2022-08-21T13:18:07;101593.72;;;28.81
64790;BMP280;51223;51.816;5.862;2022-08-21T13:20:34;101597.00;;;29.75
64790;BMP280;51223;51.816;5.862;2022-08-21T13:23:21;101591.28;;;30.22
64790;BMP280;51223;51.816;5.862;2022-08-21T13:25:48;101592.53;;;30.13
64790;BMP280;51223;51.816;5.862;2022-08-21T13:28:14;101588.97;;;30.07
64790;BMP280;51223;51.816;5.862;2022-08-21T13:30:46;101590.28;;;29.14
64790;BMP280;51223;51.816;5.862;2022-08-21T13:33:15;101588.44;;;29.95
64790;BMP280;51223;51.816;5.862;2022-08-21T13:36:10;101589.34;;;30.37
64790;BMP280;51223;51.816;5.862;2022-08-21T13:38:35;101589.16;;;30.56
64790;BMP280;51223;51.816;5.862;2022-08-21T13:41:05;101590.66;;;29.89
64790;BMP280;51223;51.816;5.862;2022-08-21T13:43:36;101586.91;;;30.41
64790;BMP280;51223;51.816;5.862;2022-08-21T13:46:07;101591.38;;;30.84
64790;BMP280;51223;51.816;5.862;2022-08-21T13:48:35;101584.06;;;29.36
64790;BMP280;51223;51.816;5.862;2022-08-21T13:51:02;101591.66;;;30.05
64790;BMP280;51223;51.816;5.862;2022-08-21T13:53:54;101594.00;;;29.54
64790;BMP280;51223;51.816;5.862;2022-08-21T13:56:43;101584.31;;;30.04
64790;BMP280;51223;51.816;5.862;2022-08-21T13:59:09;101588.38;;;30.56
64790;BMP280;51223;51.816;5.862;2022-08-21T14:01:38;101584.25;;;30.30
64790;BMP280;51223;51.816;5.862;2022-08-21T14:04:14;101577.53;;;29.36
64790;BMP280;51223;51.816;5.862;2022-08-21T14:06:42;101572.97;;;29.80
64790;BMP280;51223;51.816;5.862;2022-08-21T14:09:11;101572.53;;;29.63
64790;BMP280;51223;51.816;5.862;2022-08-21T14:11:37;101569.41;;;29.34
64790;BMP280;51223;51.816;5.862;2022-08-21T14:17:14;101571.31;;;30.31
64790;BMP280;51223;51.816;5.862;2022-08-21T14:19:50;101563.63;;;29.87
64790;BMP280;51223;51.816;5.862;2022-08-21T14:22:37;101554.69;;;30.11
64790;BMP280;51223;51.816;5.862;2022-08-21T14:30:31;101567.00;;;28.62
64790;BMP280;51223;51.816;5.862;2022-08-21T14:33:03;101568.31;;;28.93
64790;BMP280;51223;51.816;5.862;2022-08-21T14:35:30;101571.38;;;28.50
64790;BMP280;51223;51.816;5.862;2022-08-21T14:37:56;101568.56;;;29.08
64790;BMP280;51223;51.816;5.862;2022-08-21T14:40:24;101572.34;;;29.61
64790;BMP280;51223;51.816;5.862;2022-08-21T14:42:50;101577.84;;;29.19
64790;BMP280;51223;51.816;5.862;2022-08-21T14:45:23;101580.63;;;28.24
64790;BMP280;51223;51.816;5.862;2022-08-21T14:47:50;101565.63;;;27.88